createdAt,value
2018-05-15T00:00:11.421Z,71.37
2018-05-15T00:01:11.994Z,67.44
2018-05-15T00:02:12.567Z,60.96
2018-05-15T00:03:13.151Z,66.99
2018-05-15T00:04:13.727Z,68.78
2018-05-15T00:05:14.300Z,67.15
2018-05-15T00:06:14.879Z,66.06
2018-05-15T00:07:15.448Z,64.18
2018-05-15T00:08:16.022Z,67.63
2018-05-15T00:09:16.596Z,66.77
2018-05-15T00:10:17.171Z,66.35
2018-05-15T00:11:17.744Z,64.82
2018-05-15T00:12:18.320Z,63.86
2018-05-15T00:13:18.893Z,62.71
2018-05-15T00:14:19.465Z,63.96
2018-05-15T00:15:20.038Z,57.57
2018-05-15T00:16:20.612Z,65.33
2018-05-15T00:17:21.185Z,66.19
2018-05-15T00:18:21.758Z,60.96
2018-05-15T00:19:22.333Z,62.01
2018-05-15T00:20:22.905Z,70.12
2018-05-15T00:21:23.494Z,64.05
2018-05-15T00:22:24.065Z,60.80
2018-05-15T00:23:24.637Z,62.71
2018-05-15T00:24:25.212Z,63.86
2018-05-15T00:25:25.786Z,61.91
2018-05-15T00:26:26.358Z,59.72
2018-05-15T00:27:26.932Z,61.91
2018-05-15T00:28:27.517Z,57.92
2018-05-15T00:29:28.090Z,62.71
2018-05-15T00:30:28.665Z,61.82
2018-05-15T00:31:29.241Z,57.51
2018-05-15T00:32:29.812Z,55.94
2018-05-15T00:33:30.385Z,58.05
2018-05-15T00:34:30.968Z,58.24
2018-05-15T00:35:31.544Z,59.58
2018-05-15T00:36:32.120Z,67.88
2018-05-15T00:37:32.695Z,65.45
2018-05-15T00:38:33.268Z,63.93
2018-05-15T00:39:33.843Z,61.91
2018-05-15T00:40:34.416Z,56.94
2018-05-15T00:41:34.990Z,63.16
2018-05-15T00:42:35.564Z,58.66
2018-05-15T00:43:36.138Z,61.63
2018-05-15T00:44:36.711Z,63.35
2018-05-15T00:45:37.283Z,62.40
2018-05-15T00:46:37.856Z,62.84
2018-05-15T00:47:38.444Z,61.41
2018-05-15T00:48:39.015Z,58.44
2018-05-15T00:49:39.588Z,57.70
2018-05-15T00:50:40.164Z,56.37
2018-05-15T00:51:40.733Z,65.94
2018-05-15T00:52:41.308Z,62.87
2018-05-15T00:53:41.881Z,66.13
2018-05-15T00:54:42.456Z,55.31
2018-05-15T00:55:43.027Z,58.86
2018-05-15T00:56:43.602Z,66.89
2018-05-15T00:57:44.176Z,64.22
2018-05-15T00:58:44.748Z,65.36
2018-05-15T00:59:45.324Z,63.54
2018-05-15T01:00:45.900Z,67.37
2018-05-15T01:01:46.472Z,64.75
2018-05-15T01:02:47.046Z,59.62
2018-05-15T01:03:47.620Z,61.22
2018-05-15T01:04:48.196Z,64.09
2018-05-15T01:05:48.768Z,63.51
2018-05-15T01:06:49.339Z,57.58
2018-05-15T01:07:49.913Z,62.46
2018-05-15T01:08:50.486Z,63.60
2018-05-15T01:09:51.059Z,62.30
2018-05-15T01:10:51.632Z,56.37
2018-05-15T01:11:52.205Z,64.79
2018-05-15T01:12:52.777Z,66.89
2018-05-15T01:13:53.348Z,56.46
2018-05-15T01:14:53.933Z,61.37
2018-05-15T01:15:54.506Z,64.22
2018-05-15T01:16:55.081Z,68.42
2018-05-15T01:17:55.653Z,57.13
2018-05-15T01:18:56.227Z,64.50
2018-05-15T01:19:56.800Z,66.00
2018-05-15T01:20:57.378Z,60.58
2018-05-15T01:21:57.953Z,61.54
2018-05-15T01:22:58.523Z,67.56
2018-05-15T01:23:59.096Z,63.70
2018-05-15T01:24:59.671Z,63.32
2018-05-15T01:26:00.256Z,57.77
2018-05-15T01:27:00.832Z,60.96
2018-05-15T01:28:01.403Z,64.18
2018-05-15T01:29:01.978Z,59.01
2018-05-15T01:30:02.549Z,66.57
2018-05-15T01:31:03.123Z,62.74
2018-05-15T01:32:03.696Z,61.12
2018-05-15T01:33:04.272Z,61.85
2018-05-15T01:34:04.847Z,58.51
2018-05-15T01:35:05.421Z,60.90
2018-05-15T01:36:05.993Z,63.19
2018-05-15T01:37:06.570Z,56.15
2018-05-15T01:38:07.155Z,56.91
2018-05-15T01:39:07.729Z,66.19
2018-05-15T01:40:08.303Z,64.18
2018-05-15T01:41:08.876Z,64.95
2018-05-15T01:42:09.451Z,63.39
2018-05-15T01:43:10.023Z,63.39
2018-05-15T01:44:10.598Z,62.71
2018-05-15T01:45:11.170Z,62.04
2018-05-15T01:46:11.755Z,63.67
2018-05-15T01:47:12.331Z,62.52
2018-05-15T01:48:12.914Z,57.07
2018-05-15T01:49:13.487Z,63.10
2018-05-15T01:50:14.062Z,61.38
2018-05-15T01:51:14.652Z,61.76
2018-05-15T01:52:15.238Z,66.92
2018-05-15T01:53:15.806Z,64.25
2018-05-15T01:54:16.379Z,66.54
2018-05-15T01:55:16.952Z,68.26
2018-05-15T01:56:17.527Z,61.66
2018-05-15T01:57:18.101Z,59.94
2018-05-15T01:58:18.675Z,58.92
2018-05-15T01:59:19.251Z,67.02
2018-05-15T02:00:19.825Z,67.49
2018-05-15T02:01:20.397Z,60.06
2018-05-15T02:02:20.975Z,63.13
2018-05-15T02:03:21.545Z,68.87
2018-05-15T02:04:22.122Z,69.73
2018-05-15T02:05:22.692Z,66.54
2018-05-15T02:06:23.265Z,62.04
2018-05-15T02:07:23.840Z,63.10
2018-05-15T02:08:24.414Z,68.55
2018-05-15T02:09:24.992Z,56.98
2018-05-15T02:10:25.574Z,57.97
2018-05-15T02:11:26.147Z,71.73
2018-05-15T02:12:26.722Z,58.37
2018-05-15T02:13:27.295Z,58.15
2018-05-15T02:14:27.870Z,71.32
2018-05-15T02:15:28.443Z,65.30
2018-05-15T02:16:29.016Z,64.82
2018-05-15T02:17:29.589Z,57.10
2018-05-15T02:18:30.162Z,68.29
2018-05-15T02:19:30.736Z,63.19
2018-05-15T02:20:31.313Z,61.35
2018-05-15T02:21:31.896Z,54.21
2018-05-15T02:22:32.472Z,53.61
2018-05-15T02:23:33.042Z,60.71
2018-05-15T02:24:33.615Z,57.46
2018-05-15T02:25:34.189Z,61.85
2018-05-15T02:26:34.764Z,61.54
2018-05-15T02:27:35.337Z,63.45
2018-05-15T02:28:35.913Z,56.57
2018-05-15T02:29:36.484Z,61.44
2018-05-15T02:30:37.132Z,53.51
2018-05-15T02:31:37.644Z,59.34
2018-05-15T02:32:38.218Z,64.18
2018-05-15T02:33:38.793Z,57.33
2018-05-15T02:34:39.384Z,56.85
2018-05-15T02:35:39.954Z,55.80
2018-05-15T02:36:40.529Z,65.26
2018-05-15T02:37:41.103Z,53.89
2018-05-15T02:38:41.676Z,62.68
2018-05-15T02:39:42.248Z,62.40
2018-05-15T02:40:42.833Z,62.11
2018-05-15T02:41:43.407Z,56.38
2018-05-15T02:42:43.980Z,63.32
2018-05-15T02:43:44.552Z,63.51
2018-05-15T02:44:45.125Z,52.46
2018-05-15T02:45:45.698Z,62.24
2018-05-15T02:46:46.331Z,56.12
2018-05-15T02:47:46.855Z,54.68
2018-05-15T02:48:47.429Z,56.21
2018-05-15T02:49:48.002Z,69.50
2018-05-15T02:50:48.575Z,55.83
2018-05-15T02:51:49.149Z,58.03
2018-05-15T02:52:49.721Z,64.25
2018-05-15T02:53:50.295Z,58.38
2018-05-15T02:54:50.869Z,62.01
2018-05-15T02:55:51.446Z,59.27
2018-05-15T02:56:52.016Z,56.88
2018-05-15T02:57:52.588Z,65.30
2018-05-15T02:58:53.160Z,64.25
2018-05-15T02:59:53.735Z,56.40
2018-05-15T03:00:54.308Z,56.69
2018-05-15T03:01:54.883Z,65.01
2018-05-15T03:02:55.453Z,65.97
2018-05-15T03:03:56.027Z,65.45
2018-05-15T03:04:56.603Z,57.33
2018-05-15T03:05:57.175Z,57.97
2018-05-15T03:06:57.750Z,58.00
2018-05-15T03:07:58.331Z,67.75
2018-05-15T03:08:58.906Z,56.12
2018-05-15T03:09:59.480Z,62.62
2018-05-15T03:11:00.051Z,61.92
2018-05-15T03:12:00.625Z,56.18
2018-05-15T03:13:01.199Z,56.76
2018-05-15T03:14:01.779Z,57.53
2018-05-15T03:15:02.345Z,58.48
2018-05-15T03:16:02.929Z,58.58
2018-05-15T03:17:03.504Z,54.68
2018-05-15T03:18:04.077Z,64.12
2018-05-15T03:19:04.651Z,60.68
2018-05-15T03:20:05.225Z,53.16
2018-05-15T03:21:05.797Z,56.31
2018-05-15T03:22:06.370Z,55.54
2018-05-15T03:23:06.943Z,63.89
2018-05-15T03:24:07.517Z,55.99
2018-05-15T03:25:08.092Z,63.73
2018-05-15T03:26:08.667Z,52.26
2018-05-15T03:27:09.238Z,49.11
2018-05-15T03:28:09.813Z,59.53
2018-05-15T03:29:10.397Z,55.13
2018-05-15T03:30:10.973Z,59.05
2018-05-15T03:31:11.545Z,58.00
2018-05-15T03:32:12.117Z,56.38
2018-05-15T03:33:12.692Z,54.47
2018-05-15T03:34:13.265Z,63.54
2018-05-15T03:35:13.839Z,61.79
2018-05-15T03:36:14.425Z,57.31
2018-05-15T03:37:14.998Z,59.72
2018-05-15T03:38:15.574Z,61.51
2018-05-15T03:39:16.151Z,55.23
2018-05-15T03:40:16.725Z,53.03
2018-05-15T03:41:17.335Z,55.52
2018-05-15T03:42:17.873Z,61.69
2018-05-15T03:43:18.448Z,48.75
2018-05-15T03:44:19.027Z,62.68
2018-05-15T03:45:19.609Z,53.99
2018-05-15T03:46:20.184Z,62.97
2018-05-15T03:47:20.759Z,59.34
2018-05-15T03:48:21.340Z,58.51
2018-05-15T03:49:21.914Z,61.54
2018-05-15T03:50:22.490Z,61.72
2018-05-15T03:51:23.064Z,56.28
2018-05-15T03:52:23.641Z,64.40
2018-05-15T03:53:24.214Z,54.56
2018-05-15T03:54:24.788Z,60.77
2018-05-15T03:55:25.360Z,48.54
2018-05-15T03:56:25.934Z,55.61
2018-05-15T03:57:26.509Z,57.53
2018-05-15T03:58:27.084Z,58.58
2018-05-15T03:59:27.665Z,58.38
2018-05-15T04:00:28.236Z,56.73
2018-05-15T04:01:28.809Z,57.94
2018-05-15T04:02:29.379Z,55.08
2018-05-15T04:03:29.955Z,52.81
2018-05-15T04:04:30.530Z,58.36
2018-05-15T04:05:31.104Z,49.11
2018-05-15T04:06:31.680Z,55.13
2018-05-15T04:07:32.252Z,54.49
2018-05-15T04:08:32.836Z,59.44
2018-05-15T04:09:33.413Z,58.41
2018-05-15T04:10:33.990Z,64.78
2018-05-15T04:11:34.573Z,54.94
2018-05-15T04:12:35.147Z,63.16
2018-05-15T04:13:35.724Z,65.14
2018-05-15T04:14:36.296Z,53.22
2018-05-15T04:15:36.873Z,58.48
2018-05-15T04:16:37.446Z,61.35
2018-05-15T04:17:38.022Z,59.41
2018-05-15T04:18:38.596Z,59.31
2018-05-15T04:19:39.171Z,55.20
2018-05-15T04:20:39.810Z,60.17
2018-05-15T04:21:40.322Z,53.61
2018-05-15T04:22:40.897Z,56.09
2018-05-15T04:23:41.471Z,61.35
2018-05-15T04:24:42.046Z,56.12
2018-05-15T04:25:42.626Z,65.26
2018-05-15T04:26:43.207Z,55.61
2018-05-15T04:27:43.782Z,63.10
2018-05-15T04:28:44.359Z,61.66
2018-05-15T04:29:44.932Z,59.08
2018-05-15T04:30:45.509Z,61.47
2018-05-15T04:31:46.084Z,62.52
2018-05-15T04:32:46.660Z,68.84
2018-05-15T04:33:47.237Z,56.98
2018-05-15T04:34:47.824Z,61.35
2018-05-15T04:35:48.399Z,59.27
2018-05-15T04:36:48.974Z,59.15
2018-05-15T04:37:49.549Z,63.48
2018-05-15T04:38:50.123Z,51.84
2018-05-15T04:39:50.697Z,70.75
2018-05-15T04:40:51.273Z,61.57
2018-05-15T04:41:51.851Z,59.81
2018-05-15T04:42:52.426Z,64.72
2018-05-15T04:43:53.053Z,61.19
2018-05-15T04:44:53.579Z,66.63
2018-05-15T04:45:54.155Z,64.05
2018-05-15T04:46:54.745Z,58.80
2018-05-15T04:47:55.319Z,60.06
2018-05-15T04:48:55.894Z,58.15
2018-05-15T04:49:56.470Z,71.36
2018-05-15T04:50:57.049Z,69.50
2018-05-15T04:51:57.624Z,65.97
2018-05-15T04:52:58.212Z,66.16
2018-05-15T04:53:58.789Z,62.84
2018-05-15T04:54:59.365Z,74.13
2018-05-15T04:55:59.942Z,74.38
2018-05-15T04:57:00.520Z,65.42
2018-05-15T04:58:01.098Z,69.82
2018-05-15T04:59:01.671Z,75.05
2018-05-15T05:00:02.250Z,76.39
2018-05-15T05:01:02.825Z,73.61
2018-05-15T05:02:03.447Z,65.42
2018-05-15T05:03:03.978Z,73.71
2018-05-15T05:04:04.556Z,76.48
2018-05-15T05:05:05.130Z,77.53
2018-05-15T05:06:05.705Z,73.94
2018-05-15T05:07:06.282Z,77.38
2018-05-15T05:08:06.858Z,74.04
2018-05-15T05:09:07.439Z,75.95
2018-05-15T05:10:08.015Z,71.83
2018-05-15T05:11:08.590Z,77.86
2018-05-15T05:12:09.177Z,71.87
2018-05-15T05:13:09.754Z,74.84
2018-05-15T05:14:10.331Z,74.74
2018-05-15T05:15:10.909Z,79.81
2018-05-15T05:16:11.494Z,79.24
2018-05-15T05:17:12.072Z,77.61
2018-05-15T05:18:12.650Z,78.47
2018-05-15T05:19:13.225Z,77.13
2018-05-15T05:20:13.801Z,75.02
2018-05-15T05:21:14.378Z,79.24
2018-05-15T05:22:14.964Z,79.91
2018-05-15T05:23:15.542Z,75.51
2018-05-15T05:24:16.119Z,77.80
2018-05-15T05:25:16.695Z,79.05
2018-05-15T05:26:17.271Z,78.76
2018-05-15T05:27:17.848Z,76.50
2018-05-15T05:28:18.427Z,79.85
2018-05-15T05:29:19.006Z,77.70
2018-05-15T05:30:19.580Z,80.14
2018-05-15T05:31:20.167Z,78.61
2018-05-15T05:32:20.754Z,79.91
2018-05-15T05:33:21.377Z,77.70
2018-05-15T05:34:21.907Z,76.89
2018-05-15T05:35:22.486Z,82.82
2018-05-15T05:36:23.072Z,81.57
2018-05-15T05:37:23.648Z,79.95
2018-05-15T05:38:24.226Z,81.57
2018-05-15T05:39:24.802Z,84.55
2018-05-15T05:40:25.378Z,79.47
2018-05-15T05:41:25.955Z,83.97
2018-05-15T05:42:26.532Z,88.28
2018-05-15T05:43:27.109Z,83.49
2018-05-15T05:44:27.686Z,86.65
2018-05-15T05:45:28.264Z,86.84
2018-05-15T05:46:28.965Z,86.55
2018-05-15T05:47:29.427Z,87.41
2018-05-15T05:48:30.017Z,86.50
2018-05-15T05:49:30.593Z,14.60
2018-05-15T05:50:31.172Z,14.60
2018-05-15T05:51:31.751Z,14.60
2018-05-15T05:52:32.325Z,14.60
2018-05-15T05:53:32.903Z,14.60
2018-05-15T05:54:33.483Z,14.60
2018-05-15T05:55:34.067Z,14.60
2018-05-15T05:56:34.647Z,14.60
2018-05-15T05:57:35.226Z,14.60
2018-05-15T05:58:35.804Z,14.60
2018-05-15T05:59:36.382Z,14.60
2018-05-15T06:00:36.959Z,14.60
2018-05-15T06:01:37.534Z,14.60
2018-05-15T06:02:38.109Z,14.60
2018-05-15T06:03:38.689Z,14.60
2018-05-15T06:04:39.276Z,14.60
2018-05-15T06:05:39.855Z,14.60
2018-05-15T06:06:40.431Z,14.60
2018-05-15T06:07:41.008Z,14.60
2018-05-15T06:08:41.591Z,14.60
2018-05-15T06:09:42.161Z,14.60
2018-05-15T06:10:42.740Z,14.60
2018-05-15T06:11:43.316Z,14.60
2018-05-15T06:12:43.893Z,14.60
2018-05-15T06:13:44.472Z,14.60
2018-05-15T06:14:45.049Z,14.60
2018-05-15T06:15:45.694Z,14.60
2018-05-15T06:16:46.205Z,14.60
2018-05-15T06:17:46.782Z,14.60
2018-05-15T06:18:47.359Z,14.60
2018-05-15T06:19:47.938Z,14.60
2018-05-15T06:20:48.566Z,14.60
2018-05-15T06:21:49.094Z,14.60
2018-05-15T06:22:49.672Z,14.60
2018-05-15T06:23:50.248Z,14.60
2018-05-15T06:24:50.827Z,14.60
2018-05-15T06:25:51.405Z,14.60
2018-05-15T06:26:51.984Z,14.60
2018-05-15T06:27:52.560Z,14.60
2018-05-15T06:28:53.137Z,14.60
2018-05-15T06:29:53.716Z,14.60
2018-05-15T06:30:54.292Z,14.60
2018-05-15T06:31:54.870Z,14.60
2018-05-15T06:32:55.449Z,14.60
2018-05-15T06:33:56.028Z,14.60
2018-05-15T06:34:56.608Z,14.60
2018-05-15T06:35:57.186Z,14.60
2018-05-15T06:36:57.769Z,14.60
2018-05-15T06:37:58.353Z,14.60
2018-05-15T06:38:58.934Z,14.60
2018-05-15T06:39:59.510Z,14.60
2018-05-15T06:41:00.100Z,14.60
2018-05-15T06:42:00.679Z,14.60
2018-05-15T06:43:01.257Z,14.60
2018-05-15T06:44:01.834Z,14.60
2018-05-15T06:45:02.414Z,14.60
2018-05-15T06:46:02.991Z,14.60
2018-05-15T06:47:03.579Z,14.60
2018-05-15T06:48:04.164Z,14.60
2018-05-15T06:49:04.752Z,14.60
2018-05-15T06:50:05.332Z,14.60
2018-05-15T06:51:05.907Z,14.60
2018-05-15T06:52:06.486Z,14.60
2018-05-15T06:53:07.065Z,14.60
2018-05-15T06:54:07.644Z,14.60
2018-05-15T06:55:08.222Z,14.60
2018-05-15T06:56:08.803Z,14.60
2018-05-15T06:57:09.382Z,14.60
2018-05-15T06:58:09.961Z,14.60
2018-05-15T06:59:10.538Z,14.60
2018-05-15T07:00:11.118Z,14.60
2018-05-15T07:01:11.698Z,14.60
2018-05-15T07:02:12.274Z,14.60
2018-05-15T07:03:12.853Z,14.60
2018-05-15T07:04:13.441Z,14.60
2018-05-15T07:05:14.019Z,14.60
2018-05-15T07:06:14.608Z,14.60
2018-05-15T07:07:15.197Z,14.60
2018-05-15T07:08:15.788Z,14.60
2018-05-15T07:09:16.366Z,14.60
2018-05-15T07:10:16.947Z,14.60
2018-05-15T07:11:17.524Z,14.60
2018-05-15T07:12:18.104Z,14.60
2018-05-15T07:13:18.684Z,14.60
2018-05-15T07:14:19.265Z,14.60
2018-05-15T07:15:19.840Z,14.60
2018-05-15T07:16:20.425Z,14.60
2018-05-15T07:17:20.998Z,14.60
2018-05-15T07:18:21.588Z,14.60
2018-05-15T07:19:22.189Z,14.60
2018-05-15T07:20:22.760Z,14.60
2018-05-15T07:21:23.338Z,14.60
2018-05-15T07:22:23.920Z,14.60
2018-05-15T07:23:24.497Z,14.60
2018-05-15T07:24:25.077Z,14.60
2018-05-15T07:25:25.668Z,14.60
2018-05-15T07:26:26.249Z,14.60
2018-05-15T07:27:26.863Z,14.60
2018-05-15T07:28:27.405Z,14.60
2018-05-15T07:29:27.989Z,14.60
2018-05-15T07:30:28.565Z,14.60
2018-05-15T07:31:29.146Z,14.60
2018-05-15T07:32:29.725Z,14.60
2018-05-15T07:33:30.317Z,14.60
2018-05-15T07:34:30.897Z,14.60
2018-05-15T07:35:31.477Z,14.60
2018-05-15T07:36:32.057Z,14.60
2018-05-15T07:37:32.637Z,14.60
2018-05-15T07:38:33.216Z,14.60
2018-05-15T07:39:33.795Z,14.60
2018-05-15T07:40:34.377Z,14.60
2018-05-15T07:41:34.979Z,14.60
2018-05-15T07:42:35.546Z,14.60
2018-05-15T07:43:36.125Z,14.60
2018-05-15T07:44:36.704Z,14.60
2018-05-15T07:45:37.295Z,14.60
2018-05-15T07:46:37.874Z,14.60
2018-05-15T07:47:38.455Z,14.60
2018-05-15T07:48:39.035Z,14.60
2018-05-15T07:49:39.614Z,14.60
2018-05-15T07:50:40.194Z,14.60
2018-05-15T07:51:40.774Z,14.60
2018-05-15T07:52:41.357Z,14.60
2018-05-15T07:53:41.965Z,14.60
2018-05-15T07:54:42.529Z,14.60
2018-05-15T07:55:43.107Z,14.60
2018-05-15T07:56:43.686Z,14.60
2018-05-15T07:57:44.266Z,14.60
2018-05-15T07:58:44.849Z,14.60
2018-05-15T07:59:45.428Z,14.60
2018-05-15T08:00:46.008Z,14.60
2018-05-15T08:01:46.590Z,14.60
2018-05-15T08:02:47.169Z,14.60
2018-05-15T08:03:47.748Z,14.60
2018-05-15T08:04:48.338Z,14.60
2018-05-15T08:05:48.929Z,14.60
2018-05-15T08:06:49.508Z,14.60
2018-05-15T08:07:50.089Z,14.60
2018-05-15T08:08:50.672Z,14.60
2018-05-15T08:09:51.249Z,14.60
2018-05-15T08:10:51.830Z,14.60
2018-05-15T08:11:52.411Z,14.60
2018-05-15T08:12:52.990Z,14.60
2018-05-15T08:13:53.571Z,14.60
2018-05-15T08:14:54.150Z,14.60
2018-05-15T08:15:54.732Z,14.60
2018-05-15T08:16:55.311Z,14.60
2018-05-15T08:17:55.904Z,14.60
2018-05-15T08:18:56.485Z,14.60
2018-05-15T08:19:57.067Z,14.60
2018-05-15T08:20:57.646Z,14.60
2018-05-15T08:21:58.227Z,14.60
2018-05-15T08:22:58.807Z,14.60
2018-05-15T08:23:59.387Z,14.60
2018-05-15T08:24:59.983Z,14.60
2018-05-15T08:26:00.562Z,14.60
2018-05-15T08:27:01.144Z,14.60
2018-05-15T08:28:01.828Z,14.60
2018-05-15T08:29:02.319Z,14.60
2018-05-15T08:30:02.911Z,14.60
2018-05-15T08:31:03.504Z,14.60
2018-05-15T08:32:04.081Z,14.60
2018-05-15T08:33:04.661Z,14.60
2018-05-15T08:34:05.240Z,14.60
2018-05-15T08:35:05.822Z,14.60
2018-05-15T08:36:06.404Z,14.60
2018-05-15T08:37:06.985Z,14.60
2018-05-15T08:38:07.577Z,14.60
2018-05-15T08:39:08.156Z,14.60
2018-05-15T08:40:08.736Z,14.60
2018-05-15T08:41:09.319Z,14.60
2018-05-15T08:42:09.901Z,14.60
2018-05-15T08:43:10.481Z,14.60
2018-05-15T08:44:11.061Z,14.60
2018-05-15T08:45:11.645Z,14.60
2018-05-15T08:46:12.235Z,14.60
2018-05-15T08:47:12.817Z,14.60
2018-05-15T08:48:13.408Z,14.60
2018-05-15T08:49:14.005Z,14.60
2018-05-15T08:50:14.580Z,14.60
2018-05-15T08:51:15.162Z,14.60
2018-05-15T08:52:15.745Z,14.60
2018-05-15T08:53:16.341Z,14.60
2018-05-15T08:54:16.919Z,14.60
2018-05-15T08:55:17.503Z,14.60
2018-05-15T08:56:18.093Z,14.60
2018-05-15T08:57:18.676Z,14.60
2018-05-15T08:58:19.265Z,14.60
2018-05-15T08:59:19.846Z,14.60
2018-05-15T09:00:20.428Z,14.60
2018-05-15T09:01:21.008Z,14.60
2018-05-15T09:02:21.591Z,14.60
2018-05-15T09:03:22.171Z,14.60
2018-05-15T09:04:22.751Z,14.60
2018-05-15T09:05:23.334Z,14.60
2018-05-15T09:06:23.913Z,14.60
2018-05-15T09:07:24.500Z,14.60
2018-05-15T09:08:25.078Z,14.60
2018-05-15T09:09:25.656Z,14.60
2018-05-15T09:10:26.239Z,14.60
2018-05-15T09:11:26.820Z,14.60
2018-05-15T09:12:27.400Z,14.60
2018-05-15T09:13:27.985Z,14.60
2018-05-15T09:14:28.579Z,14.60
2018-05-15T09:15:29.167Z,14.60
2018-05-15T09:16:29.749Z,14.60
2018-05-15T09:17:30.331Z,14.60
2018-05-15T09:18:30.912Z,14.60
2018-05-15T09:19:31.493Z,14.60
2018-05-15T09:20:32.078Z,14.60
2018-05-15T09:21:32.657Z,14.60
2018-05-15T09:22:33.238Z,14.60
2018-05-15T09:23:33.818Z,14.60
2018-05-15T09:24:34.400Z,14.60
2018-05-15T09:25:34.981Z,14.60
2018-05-15T09:26:35.562Z,14.60
2018-05-15T09:27:36.142Z,14.60
2018-05-15T09:28:36.724Z,14.60
2018-05-15T09:29:37.306Z,14.60
2018-05-15T09:30:37.888Z,14.60
2018-05-15T09:31:38.474Z,14.60
2018-05-15T09:32:39.051Z,14.60
2018-05-15T09:33:39.633Z,14.60
2018-05-15T09:34:40.213Z,14.60
2018-05-15T09:35:40.805Z,14.60
2018-05-15T09:36:41.389Z,14.60
2018-05-15T09:37:41.970Z,14.60
2018-05-15T09:38:42.552Z,14.60
2018-05-15T09:39:43.134Z,14.60
2018-05-15T09:40:43.760Z,14.60
2018-05-15T09:41:44.297Z,14.60
2018-05-15T09:42:44.880Z,14.60
2018-05-15T09:43:45.461Z,14.60
2018-05-15T09:44:46.044Z,14.60
2018-05-15T09:45:46.636Z,14.60
2018-05-15T09:46:47.322Z,14.60
2018-05-15T09:47:47.809Z,14.60
2018-05-15T09:48:48.390Z,14.60
2018-05-15T09:49:48.971Z,14.60
2018-05-15T09:50:49.553Z,14.60
2018-05-15T09:51:50.145Z,14.60
2018-05-15T09:52:50.730Z,14.60
2018-05-15T09:53:51.311Z,14.60
2018-05-15T09:54:51.899Z,14.60
2018-05-15T09:55:52.476Z,14.60
2018-05-15T09:56:53.068Z,14.60
2018-05-15T09:57:53.649Z,14.60
2018-05-15T09:58:54.232Z,14.60
2018-05-15T09:59:54.813Z,14.60
2018-05-15T10:00:55.393Z,14.60
2018-05-15T10:01:55.973Z,14.60
2018-05-15T10:02:56.556Z,14.60
2018-05-15T10:03:57.140Z,14.60
2018-05-15T10:04:57.733Z,14.60
2018-05-15T10:05:58.328Z,14.60
2018-05-15T10:06:58.910Z,14.60
2018-05-15T10:07:59.509Z,14.60
2018-05-15T10:09:00.072Z,14.60
2018-05-15T10:10:00.654Z,14.60
2018-05-15T10:11:01.237Z,14.60
2018-05-15T10:12:01.819Z,14.60
2018-05-15T10:13:02.401Z,14.60
2018-05-15T10:14:02.990Z,14.60
2018-05-15T10:15:03.567Z,14.60
2018-05-15T10:16:04.148Z,14.60
2018-05-15T10:17:04.733Z,14.60
2018-05-15T10:18:05.314Z,14.60
2018-05-15T10:19:05.896Z,14.60
2018-05-15T10:20:06.561Z,14.60
2018-05-15T10:21:07.060Z,14.60
2018-05-15T10:22:07.642Z,14.60
2018-05-15T10:23:08.224Z,14.60
2018-05-15T10:24:08.807Z,14.60
2018-05-15T10:25:09.386Z,14.60
2018-05-15T10:26:09.969Z,14.60
2018-05-15T10:27:10.551Z,14.60
2018-05-15T10:28:11.136Z,14.60
2018-05-15T10:29:11.724Z,14.60
2018-05-15T10:30:12.307Z,14.60
2018-05-15T10:31:12.888Z,14.60
2018-05-15T10:32:13.474Z,14.60
2018-05-15T10:33:14.054Z,14.60
2018-05-15T10:34:14.635Z,14.60
2018-05-15T10:35:15.219Z,14.60
2018-05-15T10:36:15.801Z,14.60
2018-05-15T10:37:16.402Z,14.60
2018-05-15T10:38:16.978Z,14.60
2018-05-15T10:39:17.561Z,14.60
2018-05-15T10:40:18.147Z,14.60
2018-05-15T10:41:18.725Z,14.60
2018-05-15T10:42:19.309Z,14.60
2018-05-15T10:43:19.890Z,14.60
2018-05-15T10:44:20.473Z,14.60
2018-05-15T10:45:21.065Z,14.60
2018-05-15T10:46:21.647Z,14.60
2018-05-15T10:47:22.228Z,14.60
2018-05-15T10:48:22.822Z,14.60
2018-05-15T10:49:23.413Z,14.60
2018-05-15T10:50:23.997Z,14.60
2018-05-15T10:51:24.586Z,14.60
2018-05-15T10:52:25.168Z,14.60
2018-05-15T10:53:25.749Z,14.60
2018-05-15T10:54:26.331Z,14.60
2018-05-15T10:55:26.915Z,14.60
2018-05-15T10:56:27.498Z,14.60
2018-05-15T10:57:28.080Z,14.60
2018-05-15T10:58:28.668Z,14.60
2018-05-15T10:59:29.248Z,14.60
2018-05-15T11:00:29.828Z,14.60
2018-05-15T11:01:30.413Z,14.60
2018-05-15T11:02:30.995Z,14.60
2018-05-15T11:03:31.577Z,14.60
2018-05-15T11:04:32.157Z,14.60
2018-05-15T11:05:32.742Z,14.60
2018-05-15T11:06:33.331Z,14.60
2018-05-15T11:07:33.914Z,14.60
2018-05-15T11:08:34.507Z,14.60
2018-05-15T11:09:35.090Z,14.60
2018-05-15T11:10:35.673Z,14.60
2018-05-15T11:11:36.265Z,14.60
2018-05-15T11:12:36.929Z,14.60
2018-05-15T11:13:37.438Z,14.60
2018-05-15T11:14:38.021Z,14.60
2018-05-15T11:15:38.604Z,14.60
2018-05-15T11:16:39.197Z,14.60
2018-05-15T11:17:39.782Z,14.60
2018-05-15T11:18:40.396Z,14.60
2018-05-15T11:19:40.947Z,14.60
2018-05-15T11:20:41.531Z,14.60
2018-05-15T11:21:42.113Z,14.60
2018-05-15T11:22:42.693Z,14.60
2018-05-15T11:23:43.277Z,14.60
2018-05-15T11:24:43.878Z,14.60
2018-05-15T11:25:44.454Z,14.60
2018-05-15T11:26:45.037Z,14.60
2018-05-15T11:27:45.619Z,14.60
2018-05-15T11:28:46.214Z,14.60
2018-05-15T11:29:46.805Z,14.60
2018-05-15T11:30:47.381Z,14.60
2018-05-15T11:31:47.983Z,14.60
2018-05-15T11:32:48.547Z,14.60
2018-05-15T11:33:49.130Z,14.60
2018-05-15T11:34:49.715Z,14.60
2018-05-15T11:35:50.301Z,14.60
2018-05-15T11:36:50.898Z,14.60
2018-05-15T11:37:51.478Z,14.60
2018-05-15T11:38:52.072Z,14.60
2018-05-15T11:39:52.655Z,14.60
2018-05-15T11:40:53.238Z,14.60
2018-05-15T11:41:53.860Z,14.60
2018-05-15T11:42:54.411Z,14.60
2018-05-15T11:43:54.995Z,14.60
2018-05-15T11:44:55.579Z,14.60
2018-05-15T11:45:56.162Z,14.60
2018-05-15T11:46:56.750Z,14.60
2018-05-15T11:47:57.497Z,14.60
2018-05-15T11:48:58.540Z,14.60
2018-05-15T11:49:59.414Z,14.60
2018-05-15T11:50:59.838Z,14.60
2018-05-15T11:52:00.610Z,14.60
2018-05-15T11:53:00.818Z,14.60
2018-05-15T11:54:00.851Z,14.60
2018-05-15T11:55:01.420Z,14.60
2018-05-15T11:56:02.034Z,14.60
2018-05-15T11:57:02.585Z,14.60
2018-05-15T11:58:03.195Z,14.60
2018-05-15T11:59:03.752Z,14.60
2018-05-15T12:00:04.413Z,14.60
2018-05-15T12:01:04.918Z,14.60
2018-05-15T12:02:05.499Z,14.60
2018-05-15T12:03:06.081Z,14.60
2018-05-15T12:04:06.717Z,14.60
2018-05-15T12:05:07.260Z,14.60
2018-05-15T12:06:07.841Z,14.60
2018-05-15T12:07:08.422Z,14.60
2018-05-15T12:08:09.118Z,14.60
2018-05-15T12:09:09.658Z,14.60
2018-05-15T12:10:10.189Z,14.60
2018-05-15T12:11:10.770Z,14.60
2018-05-15T12:12:11.356Z,14.60
2018-05-15T12:13:11.945Z,14.60
2018-05-15T12:14:12.535Z,14.60
2018-05-15T12:15:13.118Z,14.60
2018-05-15T12:16:13.778Z,14.60
2018-05-15T12:17:14.291Z,14.60
2018-05-15T12:18:14.864Z,14.60
2018-05-15T12:19:15.448Z,14.60
2018-05-15T12:20:16.033Z,14.60
2018-05-15T12:21:16.614Z,14.60
2018-05-15T12:22:17.197Z,14.60
2018-05-15T12:23:17.781Z,14.60
2018-05-15T12:24:18.364Z,14.60
2018-05-15T12:25:18.949Z,14.60
2018-05-15T12:26:19.535Z,14.60
2018-05-15T12:27:20.124Z,14.60
2018-05-15T12:28:20.713Z,14.60
2018-05-15T12:29:21.295Z,14.60
2018-05-15T12:30:21.882Z,14.60
2018-05-15T12:31:22.463Z,14.60
2018-05-15T12:32:23.050Z,14.60
2018-05-15T12:33:23.631Z,14.60
2018-05-15T12:34:24.216Z,14.60
2018-05-15T12:35:24.811Z,14.60
2018-05-15T12:36:25.397Z,14.60
2018-05-15T12:37:25.989Z,14.60
2018-05-15T12:38:26.572Z,14.60
2018-05-15T12:39:27.166Z,14.60
2018-05-15T12:40:27.742Z,14.60
2018-05-15T12:41:28.357Z,14.60
2018-05-15T12:42:28.921Z,14.60
2018-05-15T12:43:29.514Z,14.60
2018-05-15T12:44:30.101Z,14.60
2018-05-15T12:45:30.681Z,14.60
2018-05-15T12:46:31.266Z,14.60
2018-05-15T12:47:31.850Z,14.60
2018-05-15T12:48:32.441Z,14.60
2018-05-15T12:49:33.018Z,14.60
2018-05-15T12:50:33.603Z,14.60
2018-05-15T12:51:34.185Z,14.60
2018-05-15T12:52:34.768Z,14.60
2018-05-15T12:53:35.355Z,14.60
2018-05-15T12:54:35.939Z,14.60
2018-05-15T12:55:36.521Z,14.60
2018-05-15T12:56:37.117Z,14.60
2018-05-15T12:57:37.702Z,14.60
2018-05-15T12:58:38.285Z,14.60
2018-05-15T12:59:38.869Z,14.60